Time;durP1;ratioP1;P1;durP2;ratioP2;P2;SDS_P1;SDS_P2;PMS_P1;PMS_P2;Temp;Humidity;BMP_temperature;BMP_pressure;BME280_temperature;BME280_humidity;BME280_pressure;Samples;Min_cycle;Max_cycle;Signal;HPM_P1;HPM_P2
2022/04/07 00:01:56;;;;;;;;;;;;;;;2.98;80.33;96523.41;6324085;28;19920;-66
2022/04/07 00:04:59;;;;;;;;;;;;;;;3.02;79.85;96521.53;6324194;28;19920;-65
2022/04/07 00:08:03;;;;;;;;;;;;;;;3.05;79.69;96513.59;6324031;28;19920;-65
2022/04/07 00:11:08;;;;;;;;;;;;;;;2.99;80.14;96512.09;6323772;28;19920;-65
2022/04/07 00:14:09;;;;;;;;;;;;;;;3.04;80.25;96509.34;6323647;28;20437;-65
2022/04/07 00:17:10;;;;;;;;;;;;;;;3.09;80.09;96512.59;6322822;28;19930;-65
2022/04/07 00:20:11;;;;;;;;;;;;;;;3.06;79.72;96513.56;6323133;28;19919;-65
2022/04/07 00:23:14;;;;;;;;;;;;;;;3.12;79.68;96513.31;6323218;28;19920;-65
2022/04/07 00:26:15;;;;;;;;;;;;;;;3.03;79.57;96498.09;6323238;28;19924;-65
2022/04/07 00:29:17;;;;;;;;;;;;;;;3.11;79.46;96506.44;6322867;28;19920;-65
2022/04/07 00:32:18;;;;;;;;;;;;;;;3.10;79.69;96489.13;6323391;28;19919;-65
2022/04/07 00:35:19;;;;;;;;;;;;;;;3.25;78.67;96495.44;6321787;28;20285;-64
2022/04/07 00:38:25;;;;;;;;;;;;;;;3.28;78.37;96497.06;6323170;28;19997;-65
2022/04/07 00:41:28;;;;;;;;;;;;;;;3.28;78.58;96477.09;6322534;28;19931;-65
2022/04/07 00:44:30;;;;;;;;;;;;;;;3.23;78.81;96488.59;6322459;28;19920;-65
2022/04/07 00:47:32;;;;;;;;;;;;;;;3.15;78.89;96470.75;6322550;28;19927;-65
2022/04/07 00:50:36;;;;;;;;;;;;;;;3.32;78.19;96477.84;6323161;28;19920;-64
2022/04/07 00:53:38;;;;;;;;;;;;;;;3.34;77.88;96491.59;6322229;28;19926;-65
2022/04/07 00:56:41;;;;;;;;;;;;;;;3.35;77.91;96490.69;6322189;28;19942;-64
2022/04/07 00:59:45;;;;;;;;;;;;;;;3.42;77.90;96501.69;6322294;28;19920;-64
2022/04/07 01:02:51;;;;;;;;;;;;;;;3.45;77.60;96491.16;6322479;28;19920;-63
2022/04/07 01:05:52;;;;;;;;;;;;;;;3.52;77.40;96490.81;6321455;28;19920;-64
2022/04/07 01:08:54;;;;;;;;;;;;;;;3.47;77.11;96492.78;6322046;28;19919;-64
2022/04/07 01:11:58;;;;;;;;;;;;;;;3.42;77.03;96494.72;6322381;28;19927;-64
2022/04/07 01:15:04;;;;;;;;;;;;;;;3.44;77.37;96505.91;6320704;28;19920;-64
2022/04/07 01:18:05;;;;;;;;;;;;;;;3.49;77.18;96480.56;6321573;28;19920;-64
2022/04/07 01:21:08;;;;;;;;;;;;;;;3.36;77.72;96490.63;6321100;28;19927;-64
2022/04/07 01:24:11;;;;;;;;;;;;;;;3.46;77.19;96495.44;6321472;28;19920;-64
2022/04/07 01:27:16;;;;;;;;;;;;;;;3.31;77.80;96490.00;6321066;28;19927;-64
2022/04/07 01:30:20;;;;;;;;;;;;;;;3.23;77.54;96491.19;6322198;28;19927;-64
2022/04/07 01:33:24;;;;;;;;;;;;;;;3.38;77.33;96493.16;6321238;28;19915;-63
2022/04/07 01:36:30;;;;;;;;;;;;;;;3.25;77.67;96492.81;6321041;28;19923;-62
2022/04/07 01:39:35;;;;;;;;;;;;;;;3.22;77.66;96486.91;6321552;28;20022;-63
2022/04/07 01:42:37;;;;;;;;;;;;;;;3.21;77.88;96496.47;6321213;28;19924;-63
2022/04/07 01:45:39;;;;;;;;;;;;;;;3.25;77.98;96486.78;6321003;28;20008;-64
2022/04/07 01:48:44;;;;;;;;;;;;;;;3.35;77.99;96488.09;6321126;28;20305;-63
2022/04/07 01:51:46;;;;;;;;;;;;;;;3.38;77.96;96487.97;6321172;28;19915;-64
2022/04/07 01:54:50;;;;;;;;;;;;;;;3.31;78.11;96481.31;6321925;28;19924;-63
2022/04/07 01:57:57;;;;;;;;;;;;;;;3.31;77.93;96483.94;6321666;28;19924;-65
2022/04/07 02:00:59;;;;;;;;;;;;;;;3.49;77.66;96495.31;6321530;28;19920;-64
2022/04/07 02:04:02;;;;;;;;;;;;;;;3.60;77.41;96480.94;6321436;28;20400;-64
2022/04/07 02:07:03;;;;;;;;;;;;;;;3.62;77.40;96500.81;6319065;28;19920;-64
2022/04/07 02:10:05;;;;;;;;;;;;;;;3.69;77.02;96503.09;6319341;28;19920;-64
2022/04/07 02:13:06;;;;;;;;;;;;;;;3.63;77.29;96512.94;6320322;28;19919;-64
2022/04/07 02:16:08;;;;;;;;;;;;;;;3.88;76.65;96513.56;6320455;28;20381;-63
2022/04/07 02:19:14;;;;;;;;;;;;;;;4.04;76.80;96517.16;6320709;28;20336;-64
2022/04/07 02:22:18;;;;;;;;;;;;;;;4.16;76.67;96526.19;6320812;28;19920;-64
2022/04/07 02:25:23;;;;;;;;;;;;;;;4.25;76.43;96517.13;6320001;28;19923;-64
2022/04/07 02:28:24;;;;;;;;;;;;;;;4.24;76.17;96526.69;6318840;28;19927;-65
2022/04/07 02:31:25;;;;;;;;;;;;;;;4.52;75.58;96514.16;6320233;28;20404;-64
2022/04/07 02:34:27;;;;;;;;;;;;;;;4.61;75.03;96524.16;6320783;28;19930;-64
2022/04/07 02:37:28;;;;;;;;;;;;;;;4.66;75.03;96527.38;6320085;28;20413;-64
2022/04/07 02:40:29;;;;;;;;;;;;;;;4.58;75.08;96537.31;6320258;28;19920;-64
2022/04/07 02:43:30;;;;;;;;;;;;;;;4.71;74.74;96522.81;6319690;28;20065;-64
2022/04/07 02:46:31;;;;;;;;;;;;;;;4.72;74.56;96516.66;6325286;28;20038;-65
2022/04/07 02:49:33;;;;;;;;;;;;;;;4.81;74.84;96542.31;6324892;28;19923;-65
2022/04/07 02:52:34;;;;;;;;;;;;;;;5.00;74.23;96523.19;6325267;28;19920;-64
2022/04/07 02:55:38;;;;;;;;;;;;;;;5.22;73.24;96510.78;6325202;28;20297;-65
2022/04/07 02:58:41;;;;;;;;;;;;;;;5.39;73.14;96528.22;6325295;28;20373;-65
2022/04/07 03:01:47;;;;;;;;;;;;;;;5.56;72.16;96525.59;6325142;28;19920;-65
2022/04/07 03:04:51;;;;;;;;;;;;;;;5.71;72.01;96539.63;6325268;28;19920;-64
2022/04/07 03:07:52;;;;;;;;;;;;;;;5.79;71.71;96542.69;6324867;28;19927;-64
2022/04/07 03:10:53;;;;;;;;;;;;;;;5.83;71.52;96525.97;6324850;28;19939;-65
2022/04/07 03:13:56;;;;;;;;;;;;;;;5.88;70.89;96530.09;6324948;28;19924;-64
2022/04/07 03:16:59;;;;;;;;;;;;;;;5.78;71.30;96545.41;6323380;28;20399;-64
2022/04/07 03:20:04;;;;;;;;;;;;;;;5.79;71.30;96537.47;6323418;28;19919;-64
2022/04/07 03:23:05;;;;;;;;;;;;;;;5.87;71.21;96533.66;6323970;28;19927;-64
2022/04/07 03:26:06;;;;;;;;;;;;;;;5.93;70.92;96541.16;6324565;28;19927;-64
2022/04/07 03:29:07;;;;;;;;;;;;;;;5.90;70.86;96536.09;6324140;28;20336;-65
2022/04/07 03:32:11;;;;;;;;;;;;;;;6.11;70.50;96547.22;6324773;28;19931;-65
2022/04/07 03:35:13;;;;;;;;;;;;;;;5.93;70.70;96557.69;6324006;28;20303;-63
2022/04/07 03:38:15;;;;;;;;;;;;;;;5.86;71.20;96551.09;6323514;28;19942;-64
2022/04/07 03:41:19;;;;;;;;;;;;;;;5.83;71.34;96553.81;6324444;28;19927;-65
2022/04/07 03:44:20;;;;;;;;;;;;;;;5.85;71.77;96557.19;6322616;28;20057;-64
2022/04/07 03:47:23;;;;;;;;;;;;;;;5.80;71.78;96544.41;6322761;28;20374;-64
2022/04/07 03:50:25;;;;;;;;;;;;;;;5.94;71.78;96555.91;6323317;28;19927;-64
2022/04/07 03:53:29;;;;;;;;;;;;;;;5.96;71.48;96554.09;6324185;28;19915;-64
2022/04/07 03:56:30;;;;;;;;;;;;;;;5.73;72.18;96556.06;6323048;28;20318;-64
2022/04/07 03:59:37;;;;;;;;;;;;;;;5.98;71.38;96555.69;6323116;28;19919;-64
2022/04/07 04:02:38;;;;;;;;;;;;;;;5.89;72.10;96557.88;6322948;28;19928;-65
2022/04/07 04:05:42;;;;;;;;;;;;;;;5.82;72.47;96542.53;6323892;28;20412;-64
2022/04/07 04:08:43;;;;;;;;;;;;;;;5.87;71.92;96531.03;6323128;28;20015;-64
2022/04/07 04:11:44;;;;;;;;;;;;;;;5.96;71.80;96535.81;6323370;28;19920;-65
2022/04/07 04:14:46;;;;;;;;;;;;;;;6.10;71.55;96537.69;6323549;28;20519;-64
2022/04/07 04:17:50;;;;;;;;;;;;;;;6.29;70.94;96552.31;6323434;28;19920;-65
2022/04/07 04:20:51;;;;;;;;;;;;;;;6.53;70.01;96550.16;6323459;28;19920;-65
2022/04/07 04:23:53;;;;;;;;;;;;;;;6.66;69.77;96545.13;6323244;28;20295;-65
2022/04/07 04:26:57;;;;;;;;;;;;;;;6.69;69.86;96544.94;6323371;28;20014;-65
2022/04/07 04:29:58;;;;;;;;;;;;;;;6.90;68.31;96552.53;6322243;28;19920;-64
2022/04/07 04:32:59;;;;;;;;;;;;;;;7.08;66.99;96556.75;6322780;28;19924;-64
2022/04/07 04:36:03;;;;;;;;;;;;;;;7.25;65.94;96552.38;6322494;28;19926;-65
2022/04/07 04:39:10;;;;;;;;;;;;;;;7.46;64.48;96566.81;6321923;28;19926;-65
2022/04/07 04:42:11;;;;;;;;;;;;;;;7.48;64.39;96572.81;6322538;28;19927;-65
2022/04/07 04:45:13;;;;;;;;;;;;;;;7.70;62.71;96576.81;6322708;28;19920;-64
2022/04/07 04:48:16;;;;;;;;;;;;;;;7.59;61.88;96562.56;6322877;28;19919;-64
2022/04/07 04:51:17;;;;;;;;;;;;;;;7.46;62.53;96582.53;6322827;28;19924;-64
2022/04/07 04:54:20;;;;;;;;;;;;;;;7.37;62.64;96578.66;6322790;28;19920;-64
2022/04/07 04:57:26;;;;;;;;;;;;;;;7.25;62.64;96573.28;6322770;28;19920;-65
2022/04/07 05:00:32;;;;;;;;;;;;;;;7.26;62.39;96580.19;6322754;28;19919;-64
2022/04/07 05:03:37;;;;;;;;;;;;;;;7.09;62.89;96584.59;6322449;28;19920;-65
2022/04/07 05:06:38;;;;;;;;;;;;;;;6.96;63.25;96580.97;6321744;28;19919;-64
2022/04/07 05:09:40;;;;;;;;;;;;;;;6.93;63.72;96583.75;6321254;28;20416;-65
2022/04/07 05:12:41;;;;;;;;;;;;;;;6.83;64.46;96582.59;6321091;28;19942;-64
2022/04/07 05:15:46;;;;;;;;;;;;;;;6.95;64.28;96590.59;6322222;28;20010;-62
2022/04/07 05:18:49;;;;;;;;;;;;;;;7.16;64.26;96585.97;6321303;28;19920;-64
2022/04/07 05:21:51;;;;;;;;;;;;;;;7.67;62.83;96583.06;6321652;28;19920;-64
2022/04/07 05:24:53;;;;;;;;;;;;;;;7.97;60.69;96587.47;6321435;28;19919;-64
2022/04/07 05:27:57;;;;;;;;;;;;;;;9.64;59.20;96582.31;6321395;28;19930;-65
2022/04/07 05:31:02;;;;;;;;;;;;;;;11.46;51.69;96584.63;6321921;28;20304;-64
2022/04/07 05:34:03;;;;;;;;;;;;;;;11.49;49.91;96589.69;6321232;28;19930;-64
2022/04/07 05:37:04;;;;;;;;;;;;;;;10.70;51.33;96581.28;6321340;28;19969;-65
2022/04/07 05:40:08;;;;;;;;;;;;;;;10.42;52.27;96560.47;6320639;28;19920;-63
2022/04/07 05:43:10;;;;;;;;;;;;;;;10.10;52.67;96568.72;6320351;28;20300;-64
2022/04/07 05:46:14;;;;;;;;;;;;;;;9.80;53.68;96559.34;6321234;28;19927;-64
2022/04/07 05:49:21;;;;;;;;;;;;;;;10.12;52.26;96580.81;6321393;28;20014;-65
2022/04/07 05:52:24;;;;;;;;;;;;;;;10.02;52.80;96568.41;6321070;28;19959;-65
2022/04/07 05:55:26;;;;;;;;;;;;;;;10.20;52.24;96561.06;6320900;28;19924;-64
2022/04/07 05:58:28;;;;;;;;;;;;;;;10.40;51.82;96571.09;6320878;28;20421;-63
2022/04/07 06:01:31;;;;;;;;;;;;;;;10.90;50.00;96565.84;6320540;28;19920;-65
2022/04/07 06:04:39;;;;;;;;;;;;;;;10.93;50.24;96581.47;6320964;28;19920;-63
2022/04/07 06:07:46;;;;;;;;;;;;;;;11.45;48.24;96567.16;6321191;28;20377;-65
2022/04/07 06:10:47;;;;;;;;;;;;;;;13.21;45.44;96592.41;6320853;28;19920;-64
2022/04/07 06:13:51;;;;;;;;;;;;;;;13.79;42.84;96593.03;6321125;28;19920;-64
2022/04/07 06:16:54;;;;;;;;;;;;;;;13.62;43.10;96572.41;6321248;28;20309;-64
2022/04/07 06:19:57;;;;;;;;;;;;;;;15.67;39.95;96570.63;6319387;28;19920;-64
2022/04/07 06:23:03;;;;;;;;;;;;;;;17.74;35.02;96555.59;6321142;28;20389;-64
2022/04/07 06:26:07;;;;;;;;;;;;;;;19.57;31.53;96569.78;6321041;28;20381;-64
2022/04/07 06:29:08;;;;;;;;;;;;;;;21.30;28.66;96571.38;6320297;28;19927;-65
2022/04/07 06:32:09;;;;;;;;;;;;;;;21.98;27.34;96565.31;6320351;28;19927;-64
2022/04/07 06:35:13;;;;;;;;;;;;;;;22.47;25.79;96579.38;6320888;28;20072;-64
2022/04/07 06:38:17;;;;;;;;;;;;;;;20.62;28.19;96568.22;6320706;28;19919;-64
2022/04/07 06:41:18;;;;;;;;;;;;;;;19.05;31.10;96584.09;6320292;28;19920;-65
2022/04/07 06:44:22;;;;;;;;;;;;;;;20.28;29.36;96572.91;6320390;28;19920;-65
2022/04/07 06:47:23;;;;;;;;;;;;;;;21.86;26.15;96577.47;6320167;28;19920;-65
2022/04/07 06:50:26;;;;;;;;;;;;;;;20.94;27.15;96584.34;6320078;28;19920;-65
2022/04/07 06:53:28;;;;;;;;;;;;;;;20.29;27.66;96587.91;6320225;28;19966;-64
2022/04/07 06:56:29;;;;;;;;;;;;;;;21.31;26.21;96573.03;6320029;28;19919;-66
2022/04/07 06:59:30;;;;;;;;;;;;;;;21.86;25.71;96576.63;6320014;28;19927;-65
2022/04/07 07:02:36;;;;;;;;;;;;;;;23.10;23.38;96564.69;6320246;28;19924;-64
2022/04/07 07:05:37;;;;;;;;;;;;;;;23.85;22.91;96578.84;6319960;28;19916;-65
2022/04/07 07:08:40;;;;;;;;;;;;;;;25.30;21.28;96573.03;6320454;28;19943;-65
2022/04/07 07:11:44;;;;;;;;;;;;;;;25.70;20.23;96584.84;6319831;28;19916;-65
2022/04/07 07:14:47;;;;;;;;;;;;;;;26.47;20.43;96568.41;6319664;28;19927;-65
2022/04/07 07:17:48;;;;;;;;;;;;;;;27.04;18.86;96558.88;6317888;28;19927;-65
2022/04/07 07:20:50;;;;;;;;;;;;;;;25.25;20.46;96559.34;6319254;28;19920;-65
2022/04/07 07:23:51;;;;;;;;;;;;;;;23.93;21.27;96554.56;6319298;28;19943;-64
2022/04/07 07:26:52;;;;;;;;;;;;;;;24.62;21.01;96552.09;6318818;28;19927;-64
2022/04/07 07:29:53;;;;;;;;;;;;;;;26.58;19.28;96562.44;6318988;28;19920;-65
2022/04/07 07:32:55;;;;;;;;;;;;;;;26.59;18.87;96550.63;6322145;28;19923;-65
2022/04/07 07:35:58;;;;;;;;;;;;;;;26.07;19.66;96557.59;6324440;28;19920;-64
2022/04/07 07:39:02;;;;;;;;;;;;;;;26.11;19.19;96550.75;6323881;28;19927;-65
2022/04/07 07:42:03;;;;;;;;;;;;;;;25.02;18.99;96544.28;6323926;28;19920;-65
2022/04/07 07:45:05;;;;;;;;;;;;;;;22.98;21.70;96544.69;6323641;28;19920;-65
2022/04/07 07:48:07;;;;;;;;;;;;;;;22.72;22.10;96534.38;6323860;28;19927;-64
2022/04/07 07:51:10;;;;;;;;;;;;;;;23.34;21.99;96517.09;6324346;28;19920;-64
2022/04/07 07:54:17;;;;;;;;;;;;;;;24.15;20.68;96545.47;6324127;28;19920;-64
2022/04/07 07:57:21;;;;;;;;;;;;;;;25.07;19.47;96551.75;6323126;28;19919;-64
2022/04/07 08:00:23;;;;;;;;;;;;;;;25.49;18.71;96534.59;6323257;28;20293;-64
2022/04/07 08:03:27;;;;;;;;;;;;;;;26.07;18.13;96536.00;6323937;28;19920;-65
2022/04/07 08:06:29;;;;;;;;;;;;;;;26.33;18.01;96533.34;6323293;28;19924;-64
2022/04/07 08:09:30;;;;;;;;;;;;;;;26.11;18.03;96531.88;6323865;28;19920;-63
2022/04/07 08:12:34;;;;;;;;;;;;;;;23.00;21.35;96531.94;6323910;28;20011;-64
2022/04/07 08:15:35;;;;;;;;;;;;;;;21.85;23.16;96524.88;6322915;28;20312;-65
2022/04/07 08:18:38;;;;;;;;;;;;;;;22.22;22.69;96512.56;6323296;28;19955;-66
2022/04/07 08:21:41;;;;;;;;;;;;;;;21.77;23.03;96498.19;6323463;28;19920;-66
2022/04/07 08:24:48;;;;;;;;;;;;;;;22.28;22.30;96500.28;6322847;28;19931;-64
2022/04/07 08:27:52;;;;;;;;;;;;;;;22.92;21.11;96513.22;6322832;28;20393;-65
2022/04/07 08:30:58;;;;;;;;;;;;;;;20.83;23.59;96518.69;6323087;28;19920;-65
2022/04/07 08:34:01;;;;;;;;;;;;;;;19.00;25.77;96516.25;6322620;28;19920;-66
2022/04/07 08:37:04;;;;;;;;;;;;;;;18.11;26.61;96496.06;6323416;28;19919;-64
2022/04/07 08:40:11;;;;;;;;;;;;;;;16.22;28.92;96487.81;6322895;28;19920;-66
2022/04/07 08:43:12;;;;;;;;;;;;;;;15.83;29.74;96495.84;6322153;28;19927;-67
2022/04/07 08:46:14;;;;;;;;;;;;;;;14.87;30.49;96500.06;6322544;28;19916;-67
2022/04/07 08:49:15;;;;;;;;;;;;;;;13.89;31.87;96488.13;6322546;28;19919;-67
2022/04/07 08:52:19;;;;;;;;;;;;;;;13.53;33.59;96492.06;6322590;28;19917;-67
2022/04/07 08:55:23;;;;;;;;;;;;;;;13.32;34.02;96496.47;6323026;28;19931;-66
2022/04/07 08:58:26;;;;;;;;;;;;;;;13.10;34.63;96507.91;6322230;28;19916;-64
2022/04/07 09:01:27;;;;;;;;;;;;;;;12.56;35.60;96483.16;6322843;28;19927;-66
2022/04/07 09:04:31;;;;;;;;;;;;;;;12.77;35.64;96493.81;6322089;28;19973;-63
2022/04/07 09:07:33;;;;;;;;;;;;;;;13.84;33.98;96482.41;6320292;28;19927;-65
2022/04/07 09:10:34;;;;;;;;;;;;;;;13.28;34.00;96509.09;6322165;28;19926;-63
2022/04/07 09:13:39;;;;;;;;;;;;;;;12.86;35.21;96497.53;6321678;28;19924;-64
2022/04/07 09:16:46;;;;;;;;;;;;;;;12.50;35.96;96505.59;6322021;28;19922;-65
2022/04/07 09:19:49;;;;;;;;;;;;;;;12.09;36.97;96491.19;6320714;28;19958;-64
2022/04/07 09:22:56;;;;;;;;;;;;;;;11.35;38.27;96492.38;6321815;28;19920;-64
2022/04/07 09:25:57;;;;;;;;;;;;;;;11.16;39.11;96509.53;6321855;28;19926;-64
2022/04/07 09:29:05;;;;;;;;;;;;;;;11.34;39.21;96495.97;6321519;28;19981;-65
2022/04/07 09:32:36;;;;;;;;;;;;;;;11.40;39.29;96492.88;6321832;28;20309;-64
2022/04/07 09:35:56;;;;;;;;;;;;;;;11.24;39.13;96486.13;6318663;28;20425;-64
2022/04/07 09:39:01;;;;;;;;;;;;;;;11.28;38.86;96497.25;6321676;28;19920;-65
2022/04/07 09:42:17;;;;;;;;;;;;;;;11.46;38.67;96479.25;6321566;28;19920;-65
2022/04/07 09:45:21;;;;;;;;;;;;;;;14.28;34.42;96492.81;6319849;28;20089;-64
2022/04/07 09:48:24;;;;;;;;;;;;;;;14.25;32.01;96477.22;6321025;28;19924;-65
2022/04/07 09:51:27;;;;;;;;;;;;;;;13.61;33.22;96472.91;6319374;28;19920;-65
2022/04/07 09:54:28;;;;;;;;;;;;;;;15.40;30.67;96461.75;6319414;28;19989;-65
2022/04/07 09:57:30;;;;;;;;;;;;;;;17.54;27.65;96458.31;6320967;28;19943;-65
2022/04/07 10:00:31;;;;;;;;;;;;;;;18.99;25.40;96447.91;6320592;28;19930;-65
2022/04/07 10:03:33;;;;;;;;;;;;;;;19.67;23.92;96445.06;6320111;28;19920;-65
2022/04/07 10:06:35;;;;;;;;;;;;;;;19.49;23.88;96444.34;6320640;28;20377;-64
2022/04/07 10:09:37;;;;;;;;;;;;;;;19.22;23.27;96462.31;6320804;28;20375;-65
2022/04/07 10:12:39;;;;;;;;;;;;;;;19.06;23.95;96431.09;6320934;28;20013;-65
2022/04/07 10:15:42;;;;;;;;;;;;;;;18.86;23.45;96460.88;6320273;28;19920;-64
2022/04/07 10:18:52;;;;;;;;;;;;;;;16.66;26.55;96439.44;6320741;28;20042;-64
2022/04/07 10:22:12;;;;;;;;;;;;;;;16.21;27.70;96461.41;6320416;28;20358;-64
2022/04/07 10:25:15;;;;;;;;;;;;;;;15.91;28.03;96452.69;6319919;28;20030;-65
2022/04/07 10:28:17;;;;;;;;;;;;;;;14.55;30.24;96432.22;6320253;28;19927;-64
2022/04/07 10:31:18;;;;;;;;;;;;;;;13.30;33.09;96464.88;6320829;28;19920;-64
2022/04/07 10:34:30;;;;;;;;;;;;;;;12.95;33.46;96454.53;6320736;28;19916;-64
2022/04/07 10:37:49;;;;;;;;;;;;;;;12.15;34.49;96449.47;6320340;28;19920;-65
2022/04/07 10:40:51;;;;;;;;;;;;;;;11.91;35.26;96447.75;6320071;28;19926;-65
2022/04/07 10:44:15;;;;;;;;;;;;;;;12.02;36.23;96446.94;6319860;28;19928;-65
2022/04/07 10:47:26;;;;;;;;;;;;;;;12.83;34.70;96429.97;6320354;28;19919;-66
2022/04/07 10:50:29;;;;;;;;;;;;;;;14.65;31.38;96442.00;6320201;28;19924;-65
2022/04/07 10:53:41;;;;;;;;;;;;;;;14.70;31.09;96440.63;6320147;28;20414;-65
2022/04/07 10:56:46;;;;;;;;;;;;;;;13.82;32.10;96443.84;6319790;28;19920;-65
2022/04/07 10:59:51;;;;;;;;;;;;;;;13.96;32.13;96451.44;6319673;28;19924;-64
2022/04/07 11:03:10;;;;;;;;;;;;;;;13.92;32.25;96450.84;6320254;28;19926;-65
2022/04/07 11:06:21;;;;;;;;;;;;;;;14.40;31.63;96443.28;6323643;28;19919;-65
2022/04/07 11:09:25;;;;;;;;;;;;;;;14.94;31.21;96447.34;6325414;28;19920;-65
2022/04/07 11:12:29;;;;;;;;;;;;;;;15.39;30.04;96468.06;6324141;28;19920;-65
2022/04/07 11:15:44;;;;;;;;;;;;;;;15.29;29.76;96460.09;6324368;28;20088;-64
2022/04/07 11:18:53;;;;;;;;;;;;;;;16.00;29.16;96480.19;6324839;28;19927;-65
2022/04/07 11:22:06;;;;;;;;;;;;;;;17.10;27.50;96455.56;6324194;28;19919;-64
2022/04/07 11:25:09;;;;;;;;;;;;;;;17.51;26.48;96449.66;6324414;28;19924;-65
2022/04/07 11:28:17;;;;;;;;;;;;;;;17.84;26.17;96449.94;6324254;28;19920;-65
2022/04/07 11:31:38;;;;;;;;;;;;;;;17.74;25.91;96441.19;6324756;28;19931;-64
2022/04/07 11:34:42;;;;;;;;;;;;;;;15.92;28.43;96449.06;6324381;28;20292;-64
2022/04/07 11:37:43;;;;;;;;;;;;;;;16.72;27.78;96441.50;6323394;28;19926;-65
2022/04/07 11:40:59;;;;;;;;;;;;;;;16.86;26.94;96427.72;6323774;28;19958;-65
2022/04/07 11:44:07;;;;;;;;;;;;;;;15.47;29.22;96429.25;6320699;28;19927;-64
2022/04/07 11:47:21;;;;;;;;;;;;;;;14.48;30.91;96435.50;6323564;28;19926;-65
2022/04/07 11:50:22;;;;;;;;;;;;;;;13.87;32.00;96442.50;6323850;28;19920;-65
2022/04/07 11:53:23;;;;;;;;;;;;;;;13.63;32.56;96439.25;6323100;28;20369;-65
2022/04/07 11:56:28;;;;;;;;;;;;;;;13.59;32.48;96449.25;6323599;28;19947;-65
2022/04/07 11:59:34;;;;;;;;;;;;;;;13.19;33.64;96441.09;6323829;28;19920;-64
2022/04/07 12:02:35;;;;;;;;;;;;;;;12.67;34.38;96440.06;6323245;28;19920;-64
2022/04/07 12:05:40;;;;;;;;;;;;;;;12.30;35.13;96443.00;6322437;28;20304;-66
2022/04/07 12:08:44;;;;;;;;;;;;;;;12.31;35.23;96455.22;6322720;28;19920;-64
2022/04/07 12:11:48;;;;;;;;;;;;;;;12.18;35.33;96442.16;6323245;28;19920;-66
2022/04/07 12:14:50;;;;;;;;;;;;;;;11.75;36.22;96439.31;6323376;28;19919;-65
2022/04/07 12:18:07;;;;;;;;;;;;;;;11.45;36.89;96446.78;6321837;28;19920;-65
2022/04/07 12:21:11;;;;;;;;;;;;;;;11.47;37.23;96433.53;6323095;28;19920;-65
2022/04/07 12:24:15;;;;;;;;;;;;;;;11.11;37.56;96448.47;6322536;28;19920;-65
2022/04/07 12:27:26;;;;;;;;;;;;;;;11.21;37.89;96444.22;6323006;28;19924;-65
2022/04/07 12:30:45;;;;;;;;;;;;;;;10.91;38.15;96441.19;6322842;28;20329;-64
2022/04/07 12:33:49;;;;;;;;;;;;;;;11.31;37.63;96444.34;6322955;28;19916;-65
2022/04/07 12:36:53;;;;;;;;;;;;;;;11.29;37.76;96445.44;6322842;28;20332;-65
2022/04/07 12:39:54;;;;;;;;;;;;;;;11.07;38.14;96447.03;6322547;28;19920;-65
2022/04/07 12:42:59;;;;;;;;;;;;;;;10.96;38.40;96444.34;6322505;28;19951;-65
2022/04/07 12:46:07;;;;;;;;;;;;;;;10.64;39.05;96436.97;6322319;28;19926;-64
2022/04/07 12:49:11;;;;;;;;;;;;;;;10.41;39.42;96443.03;6322427;28;19919;-65
2022/04/07 12:52:16;;;;;;;;;;;;;;;10.54;39.30;96434.19;6322496;28;19926;-65
2022/04/07 12:55:19;;;;;;;;;;;;;;;10.47;39.48;96442.59;6322139;28;19937;-65
2022/04/07 12:58:27;;;;;;;;;;;;;;;10.38;39.96;96443.28;6321682;28;19930;-65
2022/04/07 13:01:30;;;;;;;;;;;;;;;10.25;40.14;96452.00;6321879;28;20399;-64
2022/04/07 13:04:51;;;;;;;;;;;;;;;10.11;40.58;96441.63;6322221;28;19920;-65
2022/04/07 13:07:59;;;;;;;;;;;;;;;10.53;40.03;96452.69;6321628;28;19926;-65
2022/04/07 13:11:03;;;;;;;;;;;;;;;10.30;40.46;96463.06;6321784;28;19973;-65
2022/04/07 13:14:07;;;;;;;;;;;;;;;10.22;40.64;96459.25;6321397;28;20365;-64
2022/04/07 13:17:09;;;;;;;;;;;;;;;10.18;41.11;96453.38;6321329;28;19919;-65
2022/04/07 13:20:13;;;;;;;;;;;;;;;10.08;41.01;96462.84;6321973;28;19920;-64
2022/04/07 13:23:14;;;;;;;;;;;;;;;9.96;41.25;96461.06;6320123;28;20002;-65
2022/04/07 13:26:20;;;;;;;;;;;;;;;9.86;41.98;96453.81;6321591;28;19959;-64
2022/04/07 13:29:25;;;;;;;;;;;;;;;9.98;41.74;96464.44;6320090;28;20016;-65
2022/04/07 13:32:26;;;;;;;;;;;;;;;9.81;41.96;96466.41;6320665;28;19947;-65
2022/04/07 13:35:27;;;;;;;;;;;;;;;9.67;42.32;96483.13;6321494;28;19959;-65
2022/04/07 13:38:31;;;;;;;;;;;;;;;9.94;41.99;96473.50;6320175;28;19927;-65
2022/04/07 13:41:35;;;;;;;;;;;;;;;9.80;42.20;96485.78;6320836;28;19920;-65
2022/04/07 13:44:36;;;;;;;;;;;;;;;9.88;42.43;96488.72;6320816;28;20016;-65
2022/04/07 13:47:38;;;;;;;;;;;;;;;9.73;42.60;96473.16;6320846;28;19926;-65
2022/04/07 13:50:41;;;;;;;;;;;;;;;9.82;42.61;96483.88;6321603;28;19920;-65
2022/04/07 13:53:43;;;;;;;;;;;;;;;10.18;42.59;96468.31;6320945;28;19927;-66
2022/04/07 13:56:47;;;;;;;;;;;;;;;10.03;43.01;96486.81;6321309;28;19920;-65
2022/04/07 13:59:53;;;;;;;;;;;;;;;9.83;43.80;96475.06;6321070;28;19920;-64
2022/04/07 14:02:57;;;;;;;;;;;;;;;9.86;43.91;96459.06;6318982;28;19919;-66
2022/04/07 14:06:01;;;;;;;;;;;;;;;9.66;44.23;96456.97;6320134;28;20278;-65
2022/04/07 14:09:11;;;;;;;;;;;;;;;9.32;44.73;96453.97;6319969;28;19920;-64
2022/04/07 14:12:15;;;;;;;;;;;;;;;9.05;45.57;96445.28;6320874;28;19923;-64
2022/04/07 14:15:23;;;;;;;;;;;;;;;8.67;46.67;96456.50;6320936;28;19964;-64
2022/04/07 14:18:28;;;;;;;;;;;;;;;8.48;47.18;96462.06;6320814;28;20432;-64
2022/04/07 14:21:36;;;;;;;;;;;;;;;8.39;47.44;96446.91;6320846;28;20015;-66
2022/04/07 14:24:39;;;;;;;;;;;;;;;8.46;47.54;96454.28;6320925;28;20022;-65
2022/04/07 14:27:43;;;;;;;;;;;;;;;8.20;47.86;96462.91;6320682;28;19920;-65
2022/04/07 14:30:49;;;;;;;;;;;;;;;7.95;48.59;96461.78;6320755;28;19924;-65
2022/04/07 14:33:55;;;;;;;;;;;;;;;7.87;49.09;96469.28;6320710;28;19974;-65
2022/04/07 14:37:00;;;;;;;;;;;;;;;7.96;49.30;96487.06;6320496;28;19923;-65
2022/04/07 14:40:02;;;;;;;;;;;;;;;7.74;49.81;96486.66;6321902;28;20010;-65
2022/04/07 14:43:05;;;;;;;;;;;;;;;7.69;50.29;96473.00;6325504;28;19920;-66
2022/04/07 14:46:10;;;;;;;;;;;;;;;7.72;50.03;96465.78;6325096;28;19922;-65
2022/04/07 14:49:17;;;;;;;;;;;;;;;7.52;50.91;96477.44;6325799;28;20389;-66
2022/04/07 14:52:21;;;;;;;;;;;;;;;7.24;51.47;96480.84;6325751;28;19919;-65
2022/04/07 14:55:22;;;;;;;;;;;;;;;7.43;51.37;96488.47;6325447;28;19923;-66
2022/04/07 14:58:25;;;;;;;;;;;;;;;7.33;51.16;96487.31;6325080;28;19920;-66
2022/04/07 15:01:26;;;;;;;;;;;;;;;7.15;51.23;96484.81;6325003;28;19927;-66
2022/04/07 15:04:29;;;;;;;;;;;;;;;7.45;49.37;96506.72;6324909;28;20304;-65
2022/04/07 15:07:33;;;;;;;;;;;;;;;7.34;48.75;96499.47;6324855;28;20018;-65
2022/04/07 15:10:40;;;;;;;;;;;;;;;7.01;49.11;96503.09;6325328;28;19927;-66
2022/04/07 15:13:41;;;;;;;;;;;;;;;7.08;49.50;96504.44;6324553;28;20385;-65
2022/04/07 15:16:44;;;;;;;;;;;;;;;7.04;49.23;96523.00;6325108;28;19920;-66
2022/04/07 15:19:50;;;;;;;;;;;;;;;6.92;49.66;96521.91;6324952;28;19966;-65
2022/04/07 15:22:51;;;;;;;;;;;;;;;6.75;49.98;96534.16;6324636;28;19920;-66
2022/04/07 15:25:57;;;;;;;;;;;;;;;6.86;49.68;96524.88;6324876;28;19966;-65
2022/04/07 15:28:59;;;;;;;;;;;;;;;6.91;49.76;96543.78;6323945;28;19927;-65
2022/04/07 15:32:03;;;;;;;;;;;;;;;7.00;50.25;96548.50;6339760;28;20305;-65
2022/04/07 15:35:04;;;;;;;;;;;;;;;6.83;50.31;96545.97;6324573;28;19964;-65
2022/04/07 15:38:05;;;;;;;;;;;;;;;6.69;51.71;96547.56;6323548;28;19920;-66
2022/04/07 15:41:10;;;;;;;;;;;;;;;6.67;51.00;96557.25;6323545;28;19927;-64
2022/04/07 15:44:13;;;;;;;;;;;;;;;6.61;51.26;96568.06;6323604;28;19920;-65
2022/04/07 15:47:18;;;;;;;;;;;;;;;6.73;50.64;96564.75;6324449;28;20105;-66
2022/04/07 15:50:19;;;;;;;;;;;;;;;6.60;50.78;96571.59;6322516;28;19926;-65
2022/04/07 15:53:23;;;;;;;;;;;;;;;6.32;51.42;96582.69;6323324;28;19920;-65
2022/04/07 15:56:26;;;;;;;;;;;;;;;6.32;51.40;96587.06;6323606;28;19927;-65
2022/04/07 15:59:30;;;;;;;;;;;;;;;6.60;51.28;96594.28;6324022;28;19920;-65
2022/04/07 16:02:37;;;;;;;;;;;;;;;6.65;50.63;96600.97;6324038;28;19924;-64
2022/04/07 16:05:45;;;;;;;;;;;;;;;6.67;50.46;96600.88;6323755;28;19916;-65